createdAt,value
2018-01-17T00:01:52.801Z,91.40
2018-01-17T00:04:20.466Z,91.50
2018-01-17T00:06:48.050Z,91.40
2018-01-17T00:09:15.665Z,91.50
2018-01-17T00:11:43.242Z,91.40
2018-01-17T00:14:10.815Z,91.50
2018-01-17T00:16:38.344Z,91.50
2018-01-17T00:19:05.920Z,91.50
2018-01-17T00:21:33.460Z,91.50
2018-01-17T00:24:01.038Z,91.60
2018-01-17T00:26:28.567Z,91.50
2018-01-17T00:28:56.902Z,91.60
2018-01-17T00:31:24.428Z,91.60
2018-01-17T00:33:52.000Z,91.60
2018-01-17T00:36:19.536Z,91.60
2018-01-17T00:38:47.116Z,91.60
2018-01-17T00:41:14.647Z,91.60
2018-01-17T00:43:42.229Z,91.60
2018-01-17T00:46:09.760Z,91.60
2018-01-17T00:48:38.110Z,91.70
2018-01-17T00:51:05.638Z,91.70
2018-01-17T00:53:33.217Z,92.00
2018-01-17T00:56:00.754Z,91.70
2018-01-17T00:58:28.328Z,91.80
2018-01-17T01:00:55.865Z,91.70
2018-01-17T01:03:23.448Z,91.70
2018-01-17T01:05:50.978Z,91.80
2018-01-17T01:08:18.568Z,91.70
2018-01-17T01:10:46.097Z,91.70
2018-01-17T01:13:13.677Z,91.80
2018-01-17T01:15:41.206Z,91.80
2018-01-17T01:18:08.788Z,91.80
2018-01-17T01:20:36.335Z,91.80
2018-01-17T01:23:03.919Z,91.80
2018-01-17T01:25:31.446Z,91.80
2018-01-17T01:27:59.027Z,91.80
2018-01-17T01:30:26.695Z,91.90
2018-01-17T01:32:54.317Z,91.80
2018-01-17T01:35:22.666Z,91.90
2018-01-17T01:37:50.277Z,91.90
2018-01-17T01:40:17.813Z,91.90
2018-01-17T01:42:46.199Z,92.00
2018-01-17T01:45:14.539Z,92.00
2018-01-17T01:47:42.176Z,92.00
2018-01-17T01:50:09.934Z,91.90
2018-01-17T01:52:37.549Z,91.90
2018-01-17T01:55:05.891Z,92.00
2018-01-17T01:57:33.520Z,91.90
2018-01-17T02:00:01.092Z,92.00
2018-01-17T02:02:28.691Z,91.90
2018-01-17T02:04:56.270Z,92.00
2018-01-17T02:07:24.655Z,92.00
2018-01-17T02:09:52.992Z,92.00
2018-01-17T02:12:20.614Z,92.00
2018-01-17T02:14:48.188Z,92.00
2018-01-17T02:17:15.808Z,92.00
2018-01-17T02:19:44.124Z,92.00
2018-01-17T02:22:11.688Z,92.00
2018-01-17T02:24:39.212Z,92.00
2018-01-17T02:27:07.552Z,92.00
2018-01-17T02:29:35.135Z,92.00
2018-01-17T02:32:02.708Z,92.00
2018-01-17T02:34:31.003Z,92.00
2018-01-17T02:36:58.582Z,92.00
2018-01-17T02:39:26.119Z,92.00
2018-01-17T02:41:53.699Z,92.10
2018-01-17T02:44:21.223Z,92.10
2018-01-17T02:46:49.558Z,92.10
2018-01-17T02:49:17.093Z,92.00
2018-01-17T02:51:44.662Z,92.00
2018-01-17T02:54:12.199Z,92.00
2018-01-17T02:56:39.775Z,92.10
2018-01-17T02:59:07.302Z,92.00
2018-01-17T03:01:35.638Z,92.00
2018-01-17T03:04:03.735Z,92.00
2018-01-17T03:06:31.298Z,92.00
2018-01-17T03:08:59.214Z,92.10
2018-01-17T03:11:26.780Z,92.10
2018-01-17T03:13:54.310Z,92.10
2018-01-17T03:16:21.831Z,92.10
2018-01-17T03:18:49.406Z,92.10
2018-01-17T03:21:16.931Z,92.10
2018-01-17T03:23:44.503Z,92.00
2018-01-17T03:26:12.032Z,92.00
2018-01-17T03:28:39.608Z,92.00
2018-01-17T03:31:07.144Z,92.00
2018-01-17T03:33:34.719Z,92.10
2018-01-17T03:36:02.247Z,92.00
2018-01-17T03:38:29.813Z,92.00
2018-01-17T03:40:57.346Z,92.10
2018-01-17T03:43:25.684Z,92.00
2018-01-17T03:45:53.207Z,92.00
2018-01-17T03:48:20.775Z,92.00
2018-01-17T03:50:48.308Z,92.00
2018-01-17T03:53:16.644Z,91.90
2018-01-17T03:55:44.178Z,91.90
2018-01-17T03:58:11.761Z,91.90
2018-01-17T04:00:39.291Z,91.90
2018-01-17T04:03:06.862Z,92.00
2018-01-17T04:05:34.392Z,92.00
2018-01-17T04:08:02.722Z,91.90
2018-01-17T04:10:30.248Z,91.90
2018-01-17T04:12:57.813Z,91.80
2018-01-17T04:15:25.346Z,91.80
2018-01-17T04:17:53.679Z,91.80
2018-01-17T04:20:21.211Z,91.90
2018-01-17T04:22:48.785Z,91.80
2018-01-17T04:25:16.319Z,91.80
2018-01-17T04:27:43.888Z,91.80
2018-01-17T04:30:11.413Z,91.80
2018-01-17T04:32:39.744Z,91.80
2018-01-17T04:35:07.280Z,91.80
2018-01-17T04:37:34.845Z,91.70
2018-01-17T04:40:02.370Z,91.70
2018-01-17T04:42:30.714Z,91.90
2018-01-17T04:44:58.241Z,91.90
2018-01-17T04:47:25.814Z,91.90
2018-01-17T04:49:53.343Z,91.80
2018-01-17T04:52:20.914Z,91.80
2018-01-17T04:54:48.447Z,91.80
2018-01-17T04:57:16.786Z,91.90
2018-01-17T04:59:44.320Z,91.90
2018-01-17T05:02:11.893Z,91.90
2018-01-17T05:04:39.417Z,91.90
2018-01-17T05:07:06.989Z,92.00
2018-01-17T05:09:34.518Z,91.90
2018-01-17T05:12:02.860Z,91.90
2018-01-17T05:14:30.386Z,91.80
2018-01-17T05:16:57.950Z,91.90
2018-01-17T05:19:25.476Z,91.90
2018-01-17T05:21:53.815Z,92.00
2018-01-17T05:24:21.346Z,91.90
2018-01-17T05:26:48.928Z,91.90
2018-01-17T05:29:16.468Z,91.80
2018-01-17T05:31:44.039Z,91.80
2018-01-17T05:34:11.621Z,91.90
2018-01-17T05:36:39.194Z,91.90
2018-01-17T05:39:06.726Z,91.90
2018-01-17T05:41:34.296Z,91.80
2018-01-17T05:44:01.828Z,91.90
2018-01-17T05:46:29.408Z,91.80
2018-01-17T05:48:56.945Z,91.80
2018-01-17T05:51:24.520Z,91.70
2018-01-17T05:53:52.052Z,91.70
2018-01-17T05:56:20.535Z,91.70
2018-01-17T05:58:48.062Z,91.70
2018-01-17T06:01:16.395Z,91.70
2018-01-17T06:03:43.925Z,91.70
2018-01-17T06:06:11.492Z,91.70
2018-01-17T06:08:39.026Z,91.70
2018-01-17T06:11:07.363Z,91.60
2018-01-17T06:13:34.896Z,91.60
2018-01-17T06:16:02.474Z,91.60
2018-01-17T06:18:30.015Z,91.60
2018-01-17T06:20:57.592Z,91.60
2018-01-17T06:23:25.119Z,91.60
2018-01-17T06:25:52.693Z,91.60
2018-01-17T06:28:20.222Z,91.60
2018-01-17T06:30:48.558Z,91.60
2018-01-17T06:33:16.079Z,91.60
2018-01-17T06:35:43.649Z,91.60
2018-01-17T06:38:11.180Z,91.60
2018-01-17T06:40:39.588Z,87.70
2018-01-17T06:43:07.113Z,87.70
2018-01-17T06:45:35.448Z,91.10
2018-01-17T06:48:02.965Z,91.10
2018-01-17T06:50:30.535Z,91.00
2018-01-17T06:52:58.058Z,91.10
2018-01-17T06:55:26.483Z,91.10
2018-01-17T06:57:54.016Z,91.00
2018-01-17T07:00:21.586Z,91.40
2018-01-17T07:02:49.125Z,91.20
2018-01-17T07:05:17.464Z,91.30
2018-01-17T07:07:44.996Z,91.30
2018-01-17T07:10:12.572Z,91.30
2018-01-17T07:12:40.099Z,91.40
2018-01-17T07:15:07.676Z,91.30
2018-01-17T07:17:35.205Z,91.30
2018-01-17T07:20:03.539Z,91.40
2018-01-17T07:22:31.071Z,91.40
2018-01-17T07:24:58.648Z,91.40
2018-01-17T07:27:26.180Z,91.40
2018-01-17T07:29:53.752Z,91.40
2018-01-17T07:32:21.280Z,91.40
2018-01-17T07:34:49.618Z,91.30
2018-01-17T07:37:17.147Z,91.30
2018-01-17T07:39:44.728Z,91.40
2018-01-17T07:42:12.261Z,91.30
2018-01-17T07:44:39.832Z,91.30
2018-01-17T07:47:07.364Z,91.30
2018-01-17T07:49:34.961Z,91.30
2018-01-17T07:52:02.483Z,91.30
2018-01-17T07:54:30.056Z,91.30
2018-01-17T07:56:57.587Z,91.30
2018-01-17T07:59:25.928Z,91.20
2018-01-17T08:01:53.450Z,91.20
2018-01-17T08:04:21.025Z,91.20
2018-01-17T08:06:48.555Z,91.10
2018-01-17T08:09:16.128Z,91.20
2018-01-17T08:11:43.653Z,91.20
2018-01-17T08:14:11.991Z,91.20
2018-01-17T08:16:39.528Z,91.10
2018-01-17T08:19:07.227Z,91.00
2018-01-17T08:21:34.761Z,91.10
2018-01-17T08:24:02.337Z,91.00
2018-01-17T08:26:29.868Z,91.00
2018-01-17T08:28:57.443Z,91.10
2018-01-17T08:31:24.979Z,91.10
2018-01-17T08:33:52.548Z,91.10
2018-01-17T08:36:20.079Z,91.10
2018-01-17T08:38:48.410Z,91.10
2018-01-17T08:41:15.940Z,91.10
2018-01-17T08:43:43.512Z,91.10
2018-01-17T08:46:11.039Z,91.00
2018-01-17T08:48:39.379Z,91.00
2018-01-17T08:51:06.908Z,91.00
2018-01-17T08:53:34.495Z,91.10
2018-01-17T08:56:02.032Z,91.00
2018-01-17T08:58:29.564Z,91.10
2018-01-17T09:00:57.128Z,91.10
2018-01-17T09:03:24.654Z,91.10
2018-01-17T09:05:52.218Z,91.00
2018-01-17T09:08:19.742Z,91.00
2018-01-17T09:10:47.385Z,91.30
2018-01-17T09:13:14.921Z,90.90
2018-01-17T09:15:42.500Z,90.90
2018-01-17T09:18:10.035Z,90.90
2018-01-17T09:20:38.442Z,91.00
2018-01-17T09:23:06.015Z,91.00
2018-01-17T09:25:33.665Z,91.00
2018-01-17T09:28:01.239Z,90.90
2018-01-17T09:30:28.841Z,90.70
2018-01-17T09:32:57.134Z,90.60
2018-01-17T09:35:25.468Z,90.60
2018-01-17T09:37:52.999Z,90.60
2018-01-17T09:40:20.582Z,90.50
2018-01-17T09:42:48.110Z,91.20
2018-01-17T09:45:15.680Z,90.70
2018-01-17T09:47:43.212Z,90.60
2018-01-17T09:50:10.784Z,90.60
2018-01-17T09:52:38.322Z,90.60
2018-01-17T09:55:06.664Z,90.50
2018-01-17T09:57:34.212Z,90.50
2018-01-17T10:00:01.784Z,90.40
2018-01-17T10:02:29.311Z,90.40
2018-01-17T10:04:56.878Z,90.40
2018-01-17T10:07:24.401Z,90.40
2018-01-17T10:09:52.735Z,91.20
2018-01-17T10:12:20.267Z,91.20
2018-01-17T10:14:47.831Z,91.60
2018-01-17T10:17:15.363Z,90.90
2018-01-17T10:19:42.929Z,90.70
2018-01-17T10:22:10.459Z,90.40
2018-01-17T10:24:38.805Z,90.20
2018-01-17T10:27:06.342Z,90.10
2018-01-17T10:29:33.923Z,87.70
2018-01-17T10:32:01.453Z,86.10
2018-01-17T10:34:29.026Z,85.00
2018-01-17T10:36:56.556Z,83.10
2018-01-17T10:39:24.127Z,81.50
2018-01-17T10:41:51.681Z,79.90
2018-01-17T10:44:19.261Z,78.80
2018-01-17T10:46:46.796Z,78.30
2018-01-17T10:49:14.379Z,77.60
2018-01-17T10:51:41.907Z,79.40
2018-01-17T10:54:10.245Z,79.50
2018-01-17T10:56:37.774Z,79.40
2018-01-17T10:59:05.347Z,79.20
2018-01-17T11:01:32.880Z,80.00
2018-01-17T11:04:00.483Z,79.20
2018-01-17T11:06:28.019Z,80.70
2018-01-17T11:08:55.595Z,82.40
2018-01-17T11:11:23.123Z,85.20
2018-01-17T11:13:50.707Z,85.00
2018-01-17T11:16:18.237Z,87.00
2018-01-17T11:18:45.811Z,87.70
2018-01-17T11:21:13.339Z,88.50
2018-01-17T11:23:41.684Z,87.10
2018-01-17T11:26:09.211Z,87.10
2018-01-17T11:28:36.784Z,87.70
2018-01-17T11:31:04.327Z,88.10
2018-01-17T11:33:31.906Z,88.50
2018-01-17T11:35:59.428Z,88.40
2018-01-17T11:38:27.002Z,88.40
2018-01-17T11:40:54.542Z,88.00
2018-01-17T11:43:22.102Z,88.00
2018-01-17T11:45:49.686Z,87.90
2018-01-17T11:48:17.258Z,87.90
2018-01-17T11:50:44.787Z,88.50
2018-01-17T11:53:12.373Z,88.50
2018-01-17T11:55:39.898Z,88.70
2018-01-17T11:58:08.304Z,89.00
2018-01-17T12:00:35.839Z,89.00
2018-01-17T12:03:03.415Z,89.20
2018-01-17T12:05:30.956Z,89.30
2018-01-17T12:07:58.540Z,89.50
2018-01-17T12:10:26.071Z,89.40
2018-01-17T12:12:54.399Z,89.30
2018-01-17T12:15:21.919Z,89.30
2018-01-17T12:17:49.497Z,89.20
2018-01-17T12:20:17.019Z,89.30
2018-01-17T12:22:45.355Z,89.30
2018-01-17T12:25:12.884Z,89.20
2018-01-17T12:27:40.459Z,89.40
2018-01-17T12:30:07.991Z,89.20
2018-01-17T12:32:35.587Z,89.20
2018-01-17T12:35:03.124Z,90.00
2018-01-17T12:37:30.695Z,87.90
2018-01-17T12:39:58.231Z,84.20
2018-01-17T12:42:25.865Z,82.70
2018-01-17T12:44:53.358Z,82.10
2018-01-17T12:47:20.933Z,83.00
2018-01-17T12:49:48.467Z,83.40
2018-01-17T12:52:16.036Z,84.70
2018-01-17T12:54:43.576Z,85.90
2018-01-17T12:57:11.920Z,87.00
2018-01-17T12:59:39.460Z,87.00
2018-01-17T13:02:07.108Z,86.90
2018-01-17T13:04:34.635Z,87.20
2018-01-17T13:07:02.986Z,85.80
2018-01-17T13:09:30.525Z,85.80
2018-01-17T13:11:58.095Z,86.40
2018-01-17T13:14:25.628Z,86.80
2018-01-17T13:16:53.205Z,86.70
2018-01-17T13:19:20.769Z,86.50
2018-01-17T13:21:48.339Z,86.50
2018-01-17T13:24:15.880Z,87.00
2018-01-17T13:26:43.452Z,87.20
2018-01-17T13:29:10.987Z,86.90
2018-01-17T13:31:38.580Z,86.70
2018-01-17T13:34:06.880Z,86.90
2018-01-17T13:36:35.177Z,86.60
2018-01-17T13:39:02.747Z,86.60
2018-01-17T13:41:30.319Z,87.10
2018-01-17T13:43:57.857Z,87.00
2018-01-17T13:46:25.432Z,87.00
2018-01-17T13:48:52.963Z,87.30
2018-01-17T13:51:21.304Z,87.10
2018-01-17T13:53:48.886Z,87.10
2018-01-17T13:56:17.234Z,87.10
2018-01-17T13:58:44.762Z,87.10
2018-01-17T14:01:12.341Z,87.20
2018-01-17T14:03:39.870Z,87.40
2018-01-17T14:06:07.444Z,87.30
2018-01-17T14:08:35.008Z,87.60
2018-01-17T14:11:02.579Z,87.60
2018-01-17T14:13:30.109Z,87.60
2018-01-17T14:15:57.685Z,87.30
2018-01-17T14:18:25.213Z,87.60
2018-01-17T14:20:53.547Z,87.60
2018-01-17T14:23:21.073Z,87.50
2018-01-17T14:25:48.677Z,87.50
2018-01-17T14:28:16.207Z,87.40
2018-01-17T14:30:43.782Z,87.90
2018-01-17T14:33:11.319Z,87.70
2018-01-17T14:35:38.887Z,87.90
2018-01-17T14:38:06.415Z,87.90
2018-01-17T14:40:34.742Z,88.40
2018-01-17T14:43:08.094Z,88.40
2018-01-17T14:45:35.667Z,88.30
2018-01-17T14:48:03.195Z,88.30
2018-01-17T14:50:31.536Z,88.10
2018-01-17T14:52:59.071Z,88.10
2018-01-17T14:55:26.644Z,88.40
2018-01-17T14:57:54.168Z,88.30
2018-01-17T15:00:21.808Z,88.10
2018-01-17T15:02:50.112Z,88.20
2018-01-17T15:05:17.676Z,88.20
2018-01-17T15:07:45.201Z,88.00
2018-01-17T15:10:13.540Z,87.90
2018-01-17T15:12:41.058Z,87.90
2018-01-17T15:15:08.628Z,87.80
2018-01-17T15:17:36.155Z,88.00
2018-01-17T15:20:04.493Z,87.70
2018-01-17T15:22:32.055Z,87.60
2018-01-17T15:24:59.623Z,87.70
2018-01-17T15:27:27.147Z,87.70
2018-01-17T15:29:54.716Z,87.70
2018-01-17T15:32:22.254Z,88.70
2018-01-17T15:34:49.826Z,88.10
2018-01-17T15:37:17.396Z,88.20
2018-01-17T15:39:44.923Z,89.40
2018-01-17T15:42:13.267Z,91.50
2018-01-17T15:44:40.795Z,91.50
2018-01-17T15:47:09.306Z,91.60
2018-01-17T15:49:36.832Z,91.70
2018-01-17T15:52:04.439Z,91.80
2018-01-17T15:54:32.038Z,91.20
2018-01-17T15:56:59.640Z,91.50
2018-01-17T15:59:27.167Z,90.80
2018-01-17T16:01:54.746Z,90.30
2018-01-17T16:04:22.277Z,90.40
2018-01-17T16:06:49.846Z,90.00
2018-01-17T16:09:17.387Z,89.50
2018-01-17T16:11:44.926Z,88.60
2018-01-17T16:14:13.277Z,87.40
2018-01-17T16:16:40.826Z,87.40
2018-01-17T16:19:08.408Z,87.20
2018-01-17T16:21:35.953Z,87.10
2018-01-17T16:24:03.542Z,87.80
2018-01-17T16:26:31.843Z,86.60
2018-01-17T16:28:59.424Z,86.50
2018-01-17T16:31:26.966Z,86.50
2018-01-17T16:33:54.580Z,85.90
2018-01-17T16:36:22.206Z,86.30
2018-01-17T16:38:49.748Z,85.80
2018-01-17T16:41:17.322Z,85.90
2018-01-17T16:43:44.907Z,85.70
2018-01-17T16:46:12.437Z,85.80
2018-01-17T16:48:40.012Z,85.70
2018-01-17T16:51:07.552Z,85.20
2018-01-17T16:53:35.127Z,84.60
2018-01-17T16:56:02.665Z,84.50
2018-01-17T16:58:30.251Z,85.20
2018-01-17T17:00:57.849Z,85.10
2018-01-17T17:03:26.208Z,85.00
2018-01-17T17:05:53.747Z,85.00
2018-01-17T17:08:21.326Z,84.90
2018-01-17T17:10:48.907Z,84.60
2018-01-17T17:13:17.478Z,85.20
2018-01-17T17:15:45.518Z,84.40
2018-01-17T17:18:13.095Z,84.60
2018-01-17T17:20:40.632Z,84.70
2018-01-17T17:23:08.203Z,84.60
2018-01-17T17:25:35.751Z,84.50
2018-01-17T17:28:03.334Z,85.00
2018-01-17T17:30:30.868Z,84.60
2018-01-17T17:32:58.445Z,84.80
2018-01-17T17:35:25.984Z,84.50
2018-01-17T17:37:53.563Z,84.30
2018-01-17T17:40:21.104Z,84.40
2018-01-17T17:42:48.680Z,83.90
2018-01-17T17:45:16.211Z,83.90
2018-01-17T17:47:43.796Z,84.20
2018-01-17T17:50:11.337Z,84.10
2018-01-17T17:52:38.920Z,84.20
2018-01-17T17:55:06.460Z,84.30
2018-01-17T17:57:34.036Z,84.40
2018-01-17T18:00:01.568Z,84.20
2018-01-17T18:02:29.143Z,84.50
2018-01-17T18:04:56.675Z,84.50
2018-01-17T18:07:25.017Z,84.30
2018-01-17T18:09:52.821Z,84.40
2018-01-17T18:12:20.399Z,84.50
2018-01-17T18:14:47.973Z,84.50
2018-01-17T18:17:15.546Z,84.80
2018-01-17T18:19:43.079Z,84.60
2018-01-17T18:22:10.664Z,84.30
2018-01-17T18:24:38.272Z,84.00
2018-01-17T18:27:05.818Z,84.40
2018-01-17T18:29:33.348Z,84.60
2018-01-17T18:32:00.920Z,85.00
2018-01-17T18:34:28.451Z,85.40
2018-01-17T18:36:56.034Z,85.40
2018-01-17T18:39:23.577Z,85.40
2018-01-17T18:41:51.172Z,85.30
2018-01-17T18:44:21.607Z,85.50
2018-01-17T18:46:49.185Z,85.50
2018-01-17T18:49:17.483Z,85.50
2018-01-17T18:51:45.056Z,85.50
2018-01-17T18:54:12.592Z,85.50
2018-01-17T18:56:40.192Z,85.30
2018-01-17T18:59:07.729Z,85.30
2018-01-17T19:01:35.308Z,85.60
2018-01-17T19:04:02.890Z,85.60
2018-01-17T19:06:30.429Z,85.40
2018-01-17T19:08:57.995Z,85.30
2018-01-17T19:11:25.529Z,85.10
2018-01-17T19:13:53.099Z,85.40
2018-01-17T19:16:20.640Z,85.70
2018-01-17T19:18:48.228Z,85.40
2018-01-17T19:21:15.758Z,85.90
2018-01-17T19:23:43.434Z,86.10
2018-01-17T19:26:11.075Z,86.20
2018-01-17T19:28:38.650Z,86.10
2018-01-17T19:31:06.239Z,86.20
2018-01-17T19:33:33.777Z,86.10
2018-01-17T19:36:01.381Z,86.00
2018-01-17T19:38:28.925Z,86.60
2018-01-17T19:40:56.518Z,87.50
2018-01-17T19:43:24.820Z,87.20
2018-01-17T19:45:52.400Z,87.20
2018-01-17T19:48:19.957Z,86.90
2018-01-17T19:50:47.548Z,87.40
2018-01-17T19:53:15.193Z,87.30
2018-01-17T19:55:43.251Z,87.00
2018-01-17T19:58:10.833Z,87.10
2018-01-17T20:00:38.449Z,87.00
2018-01-17T20:03:05.985Z,87.00
2018-01-17T20:05:34.341Z,87.10
2018-01-17T20:08:01.892Z,87.00
2018-01-17T20:10:29.514Z,87.10
2018-01-17T20:12:57.086Z,87.30
2018-01-17T20:15:24.660Z,87.60
2018-01-17T20:17:52.188Z,87.50
2018-01-17T20:20:19.806Z,87.20
2018-01-17T20:22:53.203Z,87.30
2018-01-17T20:25:20.786Z,87.20
2018-01-17T20:27:49.126Z,87.50
2018-01-17T20:30:16.699Z,87.40
2018-01-17T20:32:44.262Z,87.40
2018-01-17T20:35:11.873Z,87.50
2018-01-17T20:37:39.453Z,87.70
2018-01-17T20:40:07.027Z,87.90
2018-01-17T20:42:34.602Z,87.90
2018-01-17T20:45:02.987Z,87.70
2018-01-17T20:47:30.532Z,87.70
2018-01-17T20:49:58.159Z,88.00
2018-01-17T20:52:25.709Z,87.60
2018-01-17T20:54:53.285Z,87.60
2018-01-17T20:57:20.866Z,87.70
2018-01-17T20:59:48.442Z,87.70
2018-01-17T21:02:15.977Z,87.90
2018-01-17T21:04:43.548Z,87.80
2018-01-17T21:07:11.118Z,88.00
2018-01-17T21:09:39.503Z,88.10
2018-01-17T21:12:07.097Z,88.10
2018-01-17T21:14:34.729Z,88.00
2018-01-17T21:17:02.258Z,87.80
2018-01-17T21:19:29.819Z,88.30
2018-01-17T21:21:57.353Z,88.00
2018-01-17T21:24:24.924Z,88.00
2018-01-17T21:26:52.515Z,88.00
2018-01-17T21:29:20.125Z,87.90
2018-01-17T21:31:47.655Z,87.70
2018-01-17T21:34:15.995Z,87.90
2018-01-17T21:36:43.565Z,87.90
2018-01-17T21:39:11.188Z,87.70
2018-01-17T21:41:38.729Z,87.90
2018-01-17T21:44:12.012Z,87.90
2018-01-17T21:46:39.519Z,87.80
2018-01-17T21:49:07.088Z,88.10
2018-01-17T21:51:34.617Z,88.00
2018-01-17T21:54:02.191Z,88.10
2018-01-17T21:56:29.719Z,88.10
2018-01-17T21:58:58.098Z,88.20
2018-01-17T22:01:26.450Z,88.20
2018-01-17T22:03:54.026Z,88.20
2018-01-17T22:06:22.332Z,88.20
2018-01-17T22:08:49.903Z,88.20
2018-01-17T22:11:17.430Z,88.10
2018-01-17T22:13:45.873Z,88.10
2018-01-17T22:16:13.403Z,88.20
2018-01-17T22:18:41.017Z,88.10
2018-01-17T22:21:09.314Z,88.10
2018-01-17T22:23:37.651Z,88.50
2018-01-17T22:26:05.187Z,88.50
2018-01-17T22:28:32.757Z,88.50
2018-01-17T22:31:00.293Z,88.50
2018-01-17T22:33:27.867Z,88.60
2018-01-17T22:35:55.396Z,88.60
2018-01-17T22:38:22.959Z,88.80
2018-01-17T22:40:50.489Z,88.80
2018-01-17T22:43:18.838Z,88.70
2018-01-17T22:45:46.374Z,88.70
2018-01-17T22:48:13.946Z,88.80
2018-01-17T22:50:41.475Z,88.80
2018-01-17T22:53:09.038Z,89.00
2018-01-17T22:55:36.570Z,88.90
2018-01-17T22:58:04.907Z,89.10
2018-01-17T23:00:32.448Z,89.10
2018-01-17T23:03:00.024Z,89.20
2018-01-17T23:05:27.562Z,89.00
2018-01-17T23:07:55.139Z,88.90
2018-01-17T23:10:22.681Z,88.90
2018-01-17T23:12:50.250Z,88.90
2018-01-17T23:15:17.802Z,88.80
2018-01-17T23:17:45.376Z,88.90
2018-01-17T23:20:12.917Z,88.90
2018-01-17T23:22:40.495Z,89.10
2018-01-17T23:25:08.029Z,88.90
2018-01-17T23:27:35.603Z,88.90
2018-01-17T23:30:03.145Z,88.90
2018-01-17T23:32:30.714Z,89.10
2018-01-17T23:34:58.239Z,89.10
2018-01-17T23:37:26.570Z,89.10
2018-01-17T23:39:54.102Z,89.00
2018-01-17T23:42:21.671Z,89.00
2018-01-17T23:44:49.217Z,88.80
2018-01-17T23:47:16.802Z,89.10
2018-01-17T23:49:44.336Z,89.20
2018-01-17T23:52:11.904Z,89.30
2018-01-17T23:54:39.440Z,89.20
2018-01-17T23:57:07.770Z,89.30
2018-01-17T23:59:35.328Z,89.30
